Airfield :
LOGIN :

Register | Disclaimer

   EN    FR    IT 

 










Legend :    VFR   Marginal VFR   IFR   Intensive IFR   Very Intensive IFR
Visi :
Ceiling :
>= 8 km
>= 3000ft
5 to 8 km
1000 to 3000 ft
1500m to 5 km
500 to 1000 ft
800 to 1500m
200 to 500 ft
< 800m
< 200 ft
Symbols :   Thunderstorms  Fog  Heavy snow  Heavy precipitations  Wind > 20 kt
SIGMETs :     Misc.  Thunderstorms  Icing  Turbulence  Mountain Waves  Volcanic Ashes






- Airport Elevation : 266 ft
- IATA code : NCL


EGNT - Newcastle

CURRENT METAR :
  • 180120Z VRB02KT 9999 FEW012 08/08 Q0997

EXPIRED METARs :
  • 180050Z VRB02KT 9999 SCT010 09/09 Q0997
  • 180020Z VRB02KT 9999 SCT009 08/08 Q0997
  • 172350Z VRB03KT 9999 SCT011 09/09 Q0997
  • 172320Z 17006KT 130V210 9999 BKN011 10/09 Q0997
  • 172250Z 17006KT 130V220 CAVOK 10/09 Q0997

TAF TAF EGNT
Valid from the 18 at 00:00 until the 19 at 00:00 UTC


172305Z 1800/1824 17006KT 9999 FEW035
PROB40
TEMPO 1800/1808 7000 SHRA
PROB30
TEMPO 1800/1808 BKN004
TEMPO 1808/1824 6000 SHRA
PROB30
TEMPO 1808/1816 4000 +SHRA BKN012 BKN020CB
ATIS : +44 191 214 3400



MET'MAP, your aeronautical weather chart ! - Copyright ORBIFLY December 2007 - Disclaimer

ORBIFLY MET'MAP TEAM :

Programming & Development : Alexandra Zaïnal
Concept & Development : Baudouin d'Aumeries
Co-Development & Prog : Marc-Olivier Méhu
Technical & hardware support : Manuel Goepfert

Contact : metmap@orbifly.com




SOURCES & CREDITS :

   NOAA